Terminal Aerodrome Forecast
Issued by NWS Louisville, KY

Home | Current Version | Previous Version | Text Only | Print | Product List | Glossary On
Versions: 1 2 3 4 5 6 7 8 9 10 11 12 13 14 15 16 17
000
FTUS43 KLMK 011700
TAFLEX
TAF
KLEX 011722Z 0118/0218 04009KT 5SM -SHRA BKN008
     FM012000 04007KT P6SM VCSH BKN012
     FM020500 04005KT 5SM BR BKN008
     FM021000 03004KT 3SM BR BKN006
     FM021500 04005KT 6SM BR BKN012=

USA.gov is the U.S. government's official web portal to all federal, state and local government web resources and services.